Terminal Aerodrome Forecast
Issued by NWS

Home | Current Version | Previous Version | Text Only | Print | Product List | Glossary On
Versions: 1 2 3 4 5 6 7 8 9 10 11 12 13 14 15 16 17 18 19 20
000
FTUS43 KGRB 232333
TAFRHI
TAF
KRHI 232333Z 2400/2424 19005KT P6SM SKC
      TEMPO 2401/2403 BKN070
     FM240300 20010G17KT P6SM BKN090 WS015/25045KT
     FM241500 22010G17KT P6SM VCSH BKN035 BKN100
     FM241900 26010G17KT P6SM VCSH BKN020 OVC035
      TEMPO 2420/2424 5SM -SHRA BR OVC012=

USA.gov is the U.S. government's official web portal to all federal, state and local government web resources and services.